Terminal Aerodrome Forecast
Issued by NWS Green Bay, WI

Home | Current Version | Previous Version | Text Only | Print | Product List | Glossary Off
Versions: 1 2 3 4 5 6 7 8 9 10 11 12 13 14 15 16 17 18 19 20 21 22 23 24 25 26 27 28 29 30 31 32 33 34 35 36 37 38 39 40

176
FTUS43 KGRB 222204 AAC
TAFGRB
TAF AMD
KGRB 222204Z 2222/2318 25007KT 6SM -SHRA BKN040
      TEMPO 2222/2224 2SM TSRA BKN018CB
     FM230000 02009G14KT 5SM TSRA BKN025CB
     FM230400 34006KT 4SM SHRA SCT035 BKN060
     FM230700 29006KT P6SM BKN100
     FM231600 26012G21KT P6SM SCT045=

USA.gov is the U.S. government's official web portal to all federal, state and local government web resources and services.